Temperatuur

Neerslag

Windstoten

Onweer

Onweerkansen (GFS)

Untitled Document





Vliegweer

[Source: ADDS]
METAR
EBBR 181720Z 25004KT 9999 FEW035 BKN039 20/14 Q1022 NOSIG =
TAF
EBBR 181700Z 1818/1924 23007KT 9999 SCT040 =

StormCell is een non profit organisatie zonder oogmerk tot sensatie